Time;durP1;ratioP1;P1;durP2;ratioP2;P2;SDS_P1;SDS_P2;PMS_P1;PMS_P2;Temp;Humidity;BMP_temperature;BMP_pressure;BME280_temperature;BME280_humidity;BME280_pressure;Samples;Min_cycle;Max_cycle;Signal;HPM_P1;HPM_P2
2021/09/29 05:52:02;;;;;;;9.02;5.45;;;;;;;;;;10504317;28;20371;-86
2021/09/29 05:57:04;;;;;;;7.45;5.20;;;;;;;;;;10494643;28;20037;-86
2021/09/29 06:02:05;;;;;;;9.02;4.53;;;;;;;;;;10495106;28;20032;-87
2021/09/29 06:07:08;;;;;;;5.70;3.95;;;;;;;;;;10495098;28;20017;-86
2021/09/29 06:12:09;;;;;;;6.28;3.63;;;;;;;;;;10493397;28;20527;-86
2021/09/29 06:17:42;;;;;;;5.53;3.40;;;;;;;;;;10432765;22;20555;-87
2021/09/29 06:22:51;;;;;;;4.68;3.50;;;;;;;;;;10379538;28;20030;-87
2021/09/29 06:27:55;;;;;;;5.03;3.47;;;;;;;;;;10373822;28;20060;-88
2021/09/29 06:33:00;;;;;;;4.38;2.85;;;;;;;;;;10373573;28;20092;-87
2021/09/29 06:38:05;;;;;;;5.30;2.38;;;;;;;;;;10372959;28;20030;-87
2021/09/29 06:43:07;;;;;;;6.03;2.75;;;;;;;;;;10379234;28;20061;-87
2021/09/29 06:48:28;;;;;;;6.32;2.60;;;;;;;;;;10393039;28;20029;-87
2021/09/29 06:53:32;;;;;;;4.75;2.55;;;;;;;;;;10392674;28;20022;-87
2021/09/29 06:58:34;;;;;;;2.90;1.95;;;;;;;;;;10395958;28;20034;-85
2021/09/29 07:03:35;;;;;;;3.35;1.90;;;;;;;;;;10354913;28;20481;-85
2021/09/29 07:08:36;;;;;;;3.85;1.90;;;;;;;;;;10346979;28;20058;-83
2021/09/29 07:13:37;;;;;;;5.13;2.30;;;;;;;;;;10354056;28;20034;-85
2021/09/29 07:18:41;;;;;;;6.32;2.80;;;;;;;;;;10351086;28;20093;-86
2021/09/29 07:23:43;;;;;;;3.60;1.95;;;;;;;;;;10352245;28;20053;-86
2021/09/29 07:28:48;;;;;;;4.10;2.55;;;;;;;;;;10351489;28;20034;-86
2021/09/29 07:33:55;;;;;;;6.75;3.50;;;;;;;;;;10350330;28;20120;-86
2021/09/29 07:38:56;;;;;;;7.18;5.22;;;;;;;;;;10355665;28;20451;-84
2021/09/29 07:43:57;;;;;;;8.07;4.10;;;;;;;;;;10358305;28;20074;-85
2021/09/29 07:48:58;;;;;;;6.10;3.78;;;;;;;;;;10372028;28;20042;-85
2021/09/29 07:53:59;;;;;;;6.75;4.82;;;;;;;;;;10365816;28;20034;-84
2021/09/29 07:59:01;;;;;;;9.30;6.22;;;;;;;;;;10360698;28;20026;-85
2021/09/29 08:04:02;;;;;;;9.02;6.32;;;;;;;;;;10359066;28;20049;-85
2021/09/29 08:09:03;;;;;;;9.00;6.10;;;;;;;;;;10358553;28;20053;-85
2021/09/29 08:14:04;;;;;;;7.97;5.45;;;;;;;;;;10355691;28;20045;-85
2021/09/29 08:19:05;;;;;;;8.55;5.10;;;;;;;;;;10377425;28;20053;-85
2021/09/29 08:24:14;;;;;;;6.80;4.32;;;;;;;;;;10368091;28;20383;-85
2021/09/29 08:29:26;;;;;;;6.28;2.40;;;;;;;;;;10351912;28;20038;-86
2021/09/29 08:34:39;;;;;;;6.00;2.90;;;;;;;;;;10361652;28;20046;-83
2021/09/29 08:39:50;;;;;;;4.80;3.00;;;;;;;;;;10362591;28;20045;-85
2021/09/29 08:50:15;;;;;;;5.35;2.50;;;;;;;;;;10356794;28;20034;-85
2021/09/29 09:16:34;;;;;;;4.20;2.10;;;;;;;;;;10359316;28;20046;-87
2021/09/29 09:21:38;;;;;;;9.10;3.28;;;;;;;;;;10355479;28;20031;-88
2021/09/29 09:26:39;;;;;;;6.50;3.08;;;;;;;;;;10356645;28;20081;-88
2021/09/29 09:31:42;;;;;;;5.70;3.20;;;;;;;;;;10371709;28;20038;-85
2021/09/29 09:36:44;;;;;;;4.53;2.78;;;;;;;;;;10367123;28;20124;-85
2021/09/29 09:41:46;;;;;;;6.20;2.95;;;;;;;;;;10367128;28;20026;-87
2021/09/29 09:46:57;;;;;;;5.15;2.60;;;;;;;;;;10375949;28;20042;-86
2021/09/29 09:52:01;;;;;;;;;;;;;;;;;;10366178;28;20022;-87
2021/09/29 09:57:21;;;;;;;3.90;2.00;;;;;;;;;;10358665;28;19985;-87
2021/09/29 10:02:22;;;;;;;6.25;2.22;;;;;;;;;;10360407;28;20037;-87
2021/09/29 10:07:30;;;;;;;4.78;2.00;;;;;;;;;;10362217;28;20027;-88
2021/09/29 10:13:00;;;;;;;5.82;2.08;;;;;;;;;;10358548;28;20026;-87
2021/09/29 10:23:50;;;;;;;4.10;2.20;;;;;;;;;;10373183;28;20074;-84
2021/09/29 10:29:01;;;;;;;3.80;1.80;;;;;;;;;;10372830;28;20022;-86
2021/09/29 10:45:43;;;;;;;4.97;1.70;;;;;;;;;;10381333;28;20489;-86
2021/09/29 11:28:35;;;;;;;4.85;1.70;;;;;;;;;;10359559;28;20030;-87
2021/09/29 11:33:50;;;;;;;2.75;1.50;;;;;;;;;;10356307;28;20034;-87
2021/09/29 11:39:28;;;;;;;4.50;1.67;;;;;;;;;;10361524;28;20023;-86
2021/09/29 12:11:08;;;;;;;2.50;1.52;;;;;;;;;;10351934;28;20337;-87
2021/09/29 12:16:49;;;;;;;2.45;1.50;;;;;;;;;;10355820;28;20031;-87
2021/09/29 12:21:55;;;;;;;3.80;1.40;;;;;;;;;;10368613;28;20061;-85
2021/09/29 12:27:04;;;;;;;2.13;1.20;;;;;;;;;;10357094;28;20034;-85
2021/09/29 12:43:34;;;;;;;4.40;1.70;;;;;;;;;;10358590;28;20022;-86
2021/09/29 12:49:09;;;;;;;4.30;1.15;;;;;;;;;;10360572;28;20045;-86
2021/09/29 12:54:20;;;;;;;3.65;1.50;;;;;;;;;;10360103;28;20472;-85
2021/09/29 13:00:01;;;;;;;3.42;1.48;;;;;;;;;;10360820;28;20054;-86
2021/09/29 13:05:02;;;;;;;2.13;1.30;;;;;;;;;;10355928;28;20061;-84
2021/09/29 13:10:18;;;;;;;3.92;1.50;;;;;;;;;;10359763;28;20037;-86
2021/09/29 13:15:20;;;;;;;5.28;1.35;;;;;;;;;;10351936;28;20061;-84
2021/09/29 13:20:36;;;;;;;5.97;1.30;;;;;;;;;;10355024;28;20037;-87
2021/09/29 13:36:49;;;;;;;2.75;1.13;;;;;;;;;;10364271;28;20481;-84
2021/09/29 13:53:26;;;;;;;2.97;1.27;;;;;;;;;;10425412;28;20037;-84
2021/09/29 14:37:29;;;;;;;2.63;1.63;;;;;;;;;;10369099;28;20035;-85
2021/09/29 14:42:33;;;;;;;4.70;1.70;;;;;;;;;;10379461;28;20341;-85
2021/09/29 14:48:16;;;;;;;3.17;1.70;;;;;;;;;;10374390;28;20031;-85
2021/09/29 14:53:38;;;;;;;3.05;1.85;;;;;;;;;;10371121;28;20037;-85
2021/09/29 14:58:39;;;;;;;4.93;1.95;;;;;;;;;;10373096;28;20033;-87
2021/09/29 15:03:57;;;;;;;3.53;1.70;;;;;;;;;;10371949;28;20037;-85
2021/09/29 15:09:00;;;;;;;5.15;1.60;;;;;;;;;;10369917;28;20022;-85
2021/09/29 15:14:13;;;;;;;4.53;1.77;;;;;;;;;;10372340;28;20014;-85
2021/09/29 15:31:23;;;;;;;3.37;1.40;;;;;;;;;;10352965;28;20030;-86
2021/09/29 15:47:49;;;;;;;5.70;1.50;;;;;;;;;;10432288;28;20037;-85
2021/09/29 15:59:04;;;;;;;3.17;1.10;;;;;;;;;;10433559;28;20037;-85
2021/09/29 16:36:05;;;;;;;5.32;1.20;;;;;;;;;;10448798;28;19897;-90
2021/09/29 17:09:28;;;;;;;1.92;0.90;;;;;;;;;;10437189;28;20033;-89
2021/09/29 17:14:54;;;;;;;2.97;1.10;;;;;;;;;;10418290;28;20029;-90
2021/09/29 17:53:45;;;;;;;3.08;0.90;;;;;;;;;;10427591;28;20048;-85
2021/09/29 17:58:46;;;;;;;;;;;;;;;;;;10431942;28;20538;-86
2021/09/29 18:09:00;;;;;;;2.50;0.80;;;;;;;;;;10435304;28;20108;-86
2021/09/29 18:14:01;;;;;;;2.20;1.02;;;;;;;;;;10423576;28;20026;-89
2021/09/29 18:19:02;;;;;;;;;;;;;;;;;;10416204;28;20034;-88
2021/09/29 18:24:03;;;;;;;7.82;3.40;;;;;;;;;;10415854;28;19905;-89
2021/09/29 18:29:05;;;;;;;;;;;;;;;;;;10417784;28;20037;-88
2021/09/29 18:34:06;;;;;;;4.53;1.58;;;;;;;;;;10415917;28;20232;-88
2021/09/29 18:39:08;;;;;;;5.22;2.33;;;;;;;;;;10428956;28;20029;-88
2021/09/29 18:44:13;;;;;;;11.82;7.30;;;;;;;;;;10452807;28;20128;-88
2021/09/29 18:49:15;;;;;;;18.92;11.85;;;;;;;;;;10426450;28;20112;-88
2021/09/29 18:54:33;;;;;;;22.83;15.38;;;;;;;;;;10442948;28;20040;-86
2021/09/29 19:10:05;;;;;;;18.45;12.50;;;;;;;;;;10437581;28;20044;-88
2021/09/29 19:15:06;;;;;;;29.30;20.70;;;;;;;;;;10424670;28;20109;-88
2021/09/29 19:20:10;;;;;;;24.13;16.92;;;;;;;;;;10422375;28;20039;-88
2021/09/29 19:25:13;;;;;;;19.48;12.80;;;;;;;;;;10423219;28;20116;-88
2021/09/29 19:30:14;;;;;;;19.25;13.50;;;;;;;;;;10421530;28;20472;-89
2021/09/29 19:35:16;;;;;;;17.08;11.02;;;;;;;;;;10421682;28;20087;-88
2021/09/29 19:40:17;;;;;;;14.27;9.18;;;;;;;;;;10420742;28;20060;-88
2021/09/29 19:45:19;;;;;;;5.90;3.67;;;;;;;;;;10420122;28;20026;-88
2021/09/29 20:11:24;;;;;;;9.63;5.22;;;;;;;;;;10421381;28;20033;-88
2021/09/29 20:16:25;;;;;;;;;;;;;;;;;;10418479;28;20029;-88
